sensor_id;sensor_type;location;lat;lon;timestamp;P1;durP1;ratioP1;P2;durP2;ratioP2
50739;SDS011;36704;52.524;17.580;2022-08-19T00:00:44;20.50;;;14.90;;
50739;SDS011;36704;52.524;17.580;2022-08-19T00:03:30;16.17;;;14.15;;
50739;SDS011;36704;52.524;17.580;2022-08-19T00:06:17;18.83;;;14.25;;
50739;SDS011;36704;52.524;17.580;2022-08-19T00:09:06;18.98;;;14.02;;
50739;SDS011;36704;52.524;17.580;2022-08-19T00:11:54;19.40;;;14.07;;
50739;SDS011;36704;52.524;17.580;2022-08-19T00:14:41;17.27;;;14.50;;
50739;SDS011;36704;52.524;17.580;2022-08-19T00:17:28;19.70;;;14.13;;
50739;SDS011;36704;52.524;17.580;2022-08-19T00:20:15;16.75;;;14.10;;
50739;SDS011;36704;52.524;17.580;2022-08-19T00:25:50;16.65;;;13.75;;
50739;SDS011;36704;52.524;17.580;2022-08-19T00:28:37;16.20;;;13.15;;
50739;SDS011;36704;52.524;17.580;2022-08-19T00:31:23;17.58;;;13.48;;
50739;SDS011;36704;52.524;17.580;2022-08-19T00:34:13;17.58;;;13.45;;
50739;SDS011;36704;52.524;17.580;2022-08-19T00:36:59;15.07;;;13.18;;
50739;SDS011;36704;52.524;17.580;2022-08-19T00:39:45;15.98;;;13.30;;
50739;SDS011;36704;52.524;17.580;2022-08-19T00:42:33;21.10;;;13.70;;
50739;SDS011;36704;52.524;17.580;2022-08-19T00:45:21;22.48;;;14.10;;
50739;SDS011;36704;52.524;17.580;2022-08-19T00:48:09;18.55;;;14.13;;
50739;SDS011;36704;52.524;17.580;2022-08-19T00:51:00;18.65;;;14.13;;
50739;SDS011;36704;52.524;17.580;2022-08-19T00:53:46;16.73;;;14.02;;
50739;SDS011;36704;52.524;17.580;2022-08-19T00:56:32;19.67;;;14.25;;
50739;SDS011;36704;52.524;17.580;2022-08-19T00:59:19;18.75;;;14.70;;
50739;SDS011;36704;52.524;17.580;2022-08-19T01:02:26;17.70;;;13.82;;
50739;SDS011;36704;52.524;17.580;2022-08-19T01:05:14;17.75;;;14.38;;
50739;SDS011;36704;52.524;17.580;2022-08-19T01:08:06;18.90;;;13.98;;
50739;SDS011;36704;52.524;17.580;2022-08-19T01:10:54;21.55;;;13.93;;
50739;SDS011;36704;52.524;17.580;2022-08-19T01:13:43;22.70;;;15.25;;
50739;SDS011;36704;52.524;17.580;2022-08-19T01:16:34;18.85;;;13.65;;
50739;SDS011;36704;52.524;17.580;2022-08-19T01:19:24;18.88;;;13.90;;
50739;SDS011;36704;52.524;17.580;2022-08-19T01:22:34;20.10;;;13.63;;
50739;SDS011;36704;52.524;17.580;2022-08-19T01:25:26;20.58;;;15.20;;
50739;SDS011;36704;52.524;17.580;2022-08-19T01:28:20;24.90;;;16.40;;
50739;SDS011;36704;52.524;17.580;2022-08-19T01:31:20;22.05;;;15.73;;
50739;SDS011;36704;52.524;17.580;2022-08-19T01:34:12;22.20;;;15.40;;
50739;SDS011;36704;52.524;17.580;2022-08-19T01:36:58;19.50;;;15.18;;
50739;SDS011;36704;52.524;17.580;2022-08-19T01:39:45;20.15;;;14.30;;
50739;SDS011;36704;52.524;17.580;2022-08-19T01:42:31;21.98;;;15.02;;
50739;SDS011;36704;52.524;17.580;2022-08-19T01:45:18;20.58;;;14.65;;
50739;SDS011;36704;52.524;17.580;2022-08-19T01:48:05;19.17;;;14.73;;
50739;SDS011;36704;52.524;17.580;2022-08-19T01:50:51;22.20;;;14.85;;
50739;SDS011;36704;52.524;17.580;2022-08-19T01:53:37;19.45;;;15.45;;
50739;SDS011;36704;52.524;17.580;2022-08-19T01:56:23;20.92;;;14.10;;
50739;SDS011;36704;52.524;17.580;2022-08-19T01:59:11;19.17;;;14.80;;
50739;SDS011;36704;52.524;17.580;2022-08-19T02:01:58;22.05;;;15.20;;
50739;SDS011;36704;52.524;17.580;2022-08-19T02:04:45;17.55;;;14.05;;
50739;SDS011;36704;52.524;17.580;2022-08-19T02:07:31;17.95;;;15.13;;
50739;SDS011;36704;52.524;17.580;2022-08-19T02:10:19;17.80;;;14.88;;
50739;SDS011;36704;52.524;17.580;2022-08-19T02:13:06;19.70;;;15.18;;
50739;SDS011;36704;52.524;17.580;2022-08-19T02:15:53;16.00;;;14.30;;
50739;SDS011;36704;52.524;17.580;2022-08-19T02:18:39;18.63;;;14.65;;
50739;SDS011;36704;52.524;17.580;2022-08-19T02:21:25;21.40;;;15.45;;
50739;SDS011;36704;52.524;17.580;2022-08-19T02:24:12;20.42;;;15.63;;
50739;SDS011;36704;52.524;17.580;2022-08-19T02:26:58;24.02;;;17.60;;
50739;SDS011;36704;52.524;17.580;2022-08-19T02:29:48;21.67;;;16.45;;
50739;SDS011;36704;52.524;17.580;2022-08-19T02:32:37;21.75;;;16.23;;
50739;SDS011;36704;52.524;17.580;2022-08-19T02:35:29;20.80;;;16.20;;
50739;SDS011;36704;52.524;17.580;2022-08-19T02:38:15;19.83;;;15.10;;
50739;SDS011;36704;52.524;17.580;2022-08-19T02:41:14;20.73;;;15.95;;
50739;SDS011;36704;52.524;17.580;2022-08-19T02:44:04;20.60;;;15.55;;
50739;SDS011;36704;52.524;17.580;2022-08-19T02:47:10;18.85;;;15.45;;
50739;SDS011;36704;52.524;17.580;2022-08-19T02:49:57;20.92;;;15.98;;
50739;SDS011;36704;52.524;17.580;2022-08-19T02:52:43;18.58;;;14.77;;
50739;SDS011;36704;52.524;17.580;2022-08-19T02:55:28;18.27;;;15.43;;
50739;SDS011;36704;52.524;17.580;2022-08-19T02:58:15;20.40;;;15.23;;
50739;SDS011;36704;52.524;17.580;2022-08-19T03:01:04;17.40;;;14.93;;
50739;SDS011;36704;52.524;17.580;2022-08-19T03:03:51;20.83;;;16.23;;
50739;SDS011;36704;52.524;17.580;2022-08-19T03:06:40;26.90;;;16.08;;
50739;SDS011;36704;52.524;17.580;2022-08-19T03:09:28;21.70;;;15.45;;
50739;SDS011;36704;52.524;17.580;2022-08-19T03:12:15;23.50;;;14.98;;
50739;SDS011;36704;52.524;17.580;2022-08-19T03:15:02;20.58;;;15.40;;
50739;SDS011;36704;52.524;17.580;2022-08-19T03:17:49;19.98;;;15.13;;
50739;SDS011;36704;52.524;17.580;2022-08-19T03:20:54;18.05;;;15.27;;
50739;SDS011;36704;52.524;17.580;2022-08-19T03:23:41;21.63;;;15.82;;
50739;SDS011;36704;52.524;17.580;2022-08-19T03:26:28;25.85;;;15.93;;
50739;SDS011;36704;52.524;17.580;2022-08-19T03:29:15;23.17;;;15.15;;
50739;SDS011;36704;52.524;17.580;2022-08-19T03:32:14;20.55;;;15.95;;
50739;SDS011;36704;52.524;17.580;2022-08-19T03:35:18;22.70;;;16.25;;
50739;SDS011;36704;52.524;17.580;2022-08-19T03:38:05;17.92;;;15.63;;
50739;SDS011;36704;52.524;17.580;2022-08-19T03:40:54;22.73;;;17.23;;
50739;SDS011;36704;52.524;17.580;2022-08-19T03:43:40;20.45;;;16.33;;
50739;SDS011;36704;52.524;17.580;2022-08-19T03:46:28;21.95;;;16.50;;
50739;SDS011;36704;52.524;17.580;2022-08-19T03:49:15;22.27;;;16.45;;
50739;SDS011;36704;52.524;17.580;2022-08-19T03:52:03;19.15;;;16.02;;
50739;SDS011;36704;52.524;17.580;2022-08-19T03:54:53;21.27;;;16.10;;
50739;SDS011;36704;52.524;17.580;2022-08-19T03:57:39;20.63;;;15.77;;
50739;SDS011;36704;52.524;17.580;2022-08-19T04:00:25;23.85;;;15.27;;
50739;SDS011;36704;52.524;17.580;2022-08-19T04:03:12;23.38;;;15.68;;
50739;SDS011;36704;52.524;17.580;2022-08-19T04:05:58;18.23;;;15.07;;
50739;SDS011;36704;52.524;17.580;2022-08-19T04:08:45;19.73;;;16.20;;
50739;SDS011;36704;52.524;17.580;2022-08-19T04:11:33;22.88;;;15.38;;
50739;SDS011;36704;52.524;17.580;2022-08-19T04:14:29;23.55;;;16.17;;
50739;SDS011;36704;52.524;17.580;2022-08-19T04:17:19;21.30;;;16.00;;
50739;SDS011;36704;52.524;17.580;2022-08-19T04:20:06;21.95;;;16.83;;
50739;SDS011;36704;52.524;17.580;2022-08-19T04:22:51;21.70;;;16.70;;
50739;SDS011;36704;52.524;17.580;2022-08-19T04:25:39;22.20;;;15.75;;
50739;SDS011;36704;52.524;17.580;2022-08-19T04:28:25;21.63;;;15.30;;
50739;SDS011;36704;52.524;17.580;2022-08-19T04:31:13;19.98;;;16.23;;
50739;SDS011;36704;52.524;17.580;2022-08-19T04:34:00;19.55;;;14.93;;
50739;SDS011;36704;52.524;17.580;2022-08-19T04:36:49;19.35;;;15.23;;
50739;SDS011;36704;52.524;17.580;2022-08-19T04:39:38;21.27;;;14.27;;
50739;SDS011;36704;52.524;17.580;2022-08-19T04:42:47;18.60;;;14.30;;
50739;SDS011;36704;52.524;17.580;2022-08-19T04:45:33;21.58;;;14.98;;
50739;SDS011;36704;52.524;17.580;2022-08-19T04:48:28;20.05;;;15.02;;
50739;SDS011;36704;52.524;17.580;2022-08-19T04:51:19;20.60;;;14.40;;
50739;SDS011;36704;52.524;17.580;2022-08-19T04:54:06;19.92;;;14.50;;
50739;SDS011;36704;52.524;17.580;2022-08-19T04:56:52;24.30;;;14.75;;
50739;SDS011;36704;52.524;17.580;2022-08-19T04:59:46;21.27;;;14.20;;
50739;SDS011;36704;52.524;17.580;2022-08-19T05:02:32;19.67;;;13.50;;
50739;SDS011;36704;52.524;17.580;2022-08-19T05:05:22;21.95;;;14.15;;
50739;SDS011;36704;52.524;17.580;2022-08-19T05:08:08;23.10;;;14.05;;
50739;SDS011;36704;52.524;17.580;2022-08-19T05:10:58;18.58;;;13.52;;
50739;SDS011;36704;52.524;17.580;2022-08-19T05:13:46;16.70;;;13.02;;
50739;SDS011;36704;52.524;17.580;2022-08-19T05:16:41;16.52;;;12.25;;
50739;SDS011;36704;52.524;17.580;2022-08-19T05:19:27;18.13;;;13.32;;
50739;SDS011;36704;52.524;17.580;2022-08-19T05:22:31;14.73;;;12.52;;
50739;SDS011;36704;52.524;17.580;2022-08-19T05:25:20;14.55;;;11.73;;
50739;SDS011;36704;52.524;17.580;2022-08-19T05:28:06;17.70;;;11.80;;
50739;SDS011;36704;52.524;17.580;2022-08-19T05:30:52;14.93;;;11.27;;
50739;SDS011;36704;52.524;17.580;2022-08-19T05:33:41;15.60;;;11.10;;
50739;SDS011;36704;52.524;17.580;2022-08-19T05:36:27;16.73;;;11.88;;
50739;SDS011;36704;52.524;17.580;2022-08-19T05:39:16;15.65;;;10.82;;
50739;SDS011;36704;52.524;17.580;2022-08-19T05:42:05;14.90;;;11.43;;
50739;SDS011;36704;52.524;17.580;2022-08-19T05:44:54;13.27;;;9.40;;
50739;SDS011;36704;52.524;17.580;2022-08-19T05:47:41;13.90;;;9.77;;
50739;SDS011;36704;52.524;17.580;2022-08-19T05:50:27;14.45;;;10.10;;
50739;SDS011;36704;52.524;17.580;2022-08-19T05:53:13;15.23;;;10.18;;
50739;SDS011;36704;52.524;17.580;2022-08-19T05:56:09;13.68;;;10.13;;
50739;SDS011;36704;52.524;17.580;2022-08-19T05:58:58;13.98;;;10.18;;
50739;SDS011;36704;52.524;17.580;2022-08-19T06:01:45;13.77;;;10.07;;
50739;SDS011;36704;52.524;17.580;2022-08-19T06:04:32;13.85;;;10.45;;
50739;SDS011;36704;52.524;17.580;2022-08-19T06:07:19;14.25;;;10.75;;
50739;SDS011;36704;52.524;17.580;2022-08-19T06:10:07;17.17;;;10.73;;
50739;SDS011;36704;52.524;17.580;2022-08-19T06:12:55;17.38;;;10.77;;
50739;SDS011;36704;52.524;17.580;2022-08-19T06:15:41;18.80;;;11.23;;
50739;SDS011;36704;52.524;17.580;2022-08-19T06:18:29;15.80;;;11.07;;
50739;SDS011;36704;52.524;17.580;2022-08-19T06:21:15;13.93;;;11.00;;
50739;SDS011;36704;52.524;17.580;2022-08-19T06:24:01;13.50;;;11.25;;
50739;SDS011;36704;52.524;17.580;2022-08-19T06:29:45;15.10;;;10.35;;
50739;SDS011;36704;52.524;17.580;2022-08-19T06:32:33;16.15;;;11.45;;
50739;SDS011;36704;52.524;17.580;2022-08-19T06:35:27;14.48;;;11.25;;
50739;SDS011;36704;52.524;17.580;2022-08-19T06:38:15;16.02;;;11.07;;
50739;SDS011;36704;52.524;17.580;2022-08-19T06:41:04;17.52;;;11.82;;
50739;SDS011;36704;52.524;17.580;2022-08-19T06:43:55;13.85;;;10.93;;
50739;SDS011;36704;52.524;17.580;2022-08-19T06:46:43;16.77;;;10.48;;
50739;SDS011;36704;52.524;17.580;2022-08-19T06:49:39;14.95;;;11.30;;
50739;SDS011;36704;52.524;17.580;2022-08-19T06:52:27;17.70;;;10.65;;
50739;SDS011;36704;52.524;17.580;2022-08-19T06:55:14;15.40;;;10.80;;
50739;SDS011;36704;52.524;17.580;2022-08-19T06:58:06;19.90;;;10.95;;
50739;SDS011;36704;52.524;17.580;2022-08-19T07:00:54;15.85;;;10.70;;
50739;SDS011;36704;52.524;17.580;2022-08-19T07:03:41;15.40;;;10.82;;
50739;SDS011;36704;52.524;17.580;2022-08-19T07:06:30;14.20;;;9.70;;
50739;SDS011;36704;52.524;17.580;2022-08-19T07:09:31;16.77;;;11.00;;
50739;SDS011;36704;52.524;17.580;2022-08-19T07:12:18;16.55;;;11.52;;
50739;SDS011;36704;52.524;17.580;2022-08-19T07:15:09;19.58;;;9.95;;
50739;SDS011;36704;52.524;17.580;2022-08-19T07:17:57;17.42;;;10.00;;
50739;SDS011;36704;52.524;17.580;2022-08-19T07:20:45;12.95;;;9.63;;
50739;SDS011;36704;52.524;17.580;2022-08-19T07:23:33;12.63;;;10.80;;
50739;SDS011;36704;52.524;17.580;2022-08-19T07:26:26;11.48;;;9.73;;
50739;SDS011;36704;52.524;17.580;2022-08-19T07:29:16;13.13;;;10.25;;
50739;SDS011;36704;52.524;17.580;2022-08-19T07:32:07;14.13;;;10.13;;
50739;SDS011;36704;52.524;17.580;2022-08-19T07:34:59;14.93;;;10.23;;
50739;SDS011;36704;52.524;17.580;2022-08-19T07:37:47;16.50;;;10.68;;
50739;SDS011;36704;52.524;17.580;2022-08-19T07:40:36;15.70;;;10.10;;
50739;SDS011;36704;52.524;17.580;2022-08-19T07:43:23;16.05;;;10.32;;
50739;SDS011;36704;52.524;17.580;2022-08-19T07:46:20;21.75;;;10.95;;
50739;SDS011;36704;52.524;17.580;2022-08-19T07:49:08;13.30;;;10.38;;
50739;SDS011;36704;52.524;17.580;2022-08-19T07:52:04;16.02;;;10.02;;
50739;SDS011;36704;52.524;17.580;2022-08-19T07:54:53;15.90;;;10.13;;
50739;SDS011;36704;52.524;17.580;2022-08-19T07:57:40;15.00;;;10.82;;
50739;SDS011;36704;52.524;17.580;2022-08-19T08:00:26;13.18;;;10.40;;
50739;SDS011;36704;52.524;17.580;2022-08-19T08:03:14;13.98;;;10.43;;
50739;SDS011;36704;52.524;17.580;2022-08-19T08:06:04;13.20;;;9.98;;
50739;SDS011;36704;52.524;17.580;2022-08-19T08:09:15;14.38;;;10.18;;
50739;SDS011;36704;52.524;17.580;2022-08-19T08:12:11;16.20;;;10.20;;
50739;SDS011;36704;52.524;17.580;2022-08-19T08:15:19;15.73;;;10.68;;
50739;SDS011;36704;52.524;17.580;2022-08-19T08:18:11;12.85;;;9.90;;
50739;SDS011;36704;52.524;17.580;2022-08-19T08:21:00;13.45;;;10.13;;
50739;SDS011;36704;52.524;17.580;2022-08-19T08:23:47;12.40;;;9.82;;
50739;SDS011;36704;52.524;17.580;2022-08-19T08:29:32;13.00;;;9.93;;
50739;SDS011;36704;52.524;17.580;2022-08-19T08:32:21;10.68;;;9.57;;
50739;SDS011;36704;52.524;17.580;2022-08-19T08:35:09;12.60;;;9.60;;
50739;SDS011;36704;52.524;17.580;2022-08-19T08:37:59;15.75;;;10.32;;
50739;SDS011;36704;52.524;17.580;2022-08-19T08:40:50;17.02;;;9.85;;
50739;SDS011;36704;52.524;17.580;2022-08-19T08:43:44;14.10;;;9.70;;
50739;SDS011;36704;52.524;17.580;2022-08-19T08:46:43;13.85;;;10.18;;
50739;SDS011;36704;52.524;17.580;2022-08-19T08:49:53;12.98;;;10.07;;
50739;SDS011;36704;52.524;17.580;2022-08-19T08:52:49;19.00;;;10.32;;
50739;SDS011;36704;52.524;17.580;2022-08-19T08:55:39;14.10;;;10.15;;
50739;SDS011;36704;52.524;17.580;2022-08-19T08:58:36;14.65;;;9.90;;
50739;SDS011;36704;52.524;17.580;2022-08-19T09:01:31;14.75;;;10.63;;
50739;SDS011;36704;52.524;17.580;2022-08-19T09:04:18;14.10;;;10.20;;
50739;SDS011;36704;52.524;17.580;2022-08-19T09:07:12;13.73;;;10.32;;
50739;SDS011;36704;52.524;17.580;2022-08-19T09:10:56;13.70;;;10.02;;
50739;SDS011;36704;52.524;17.580;2022-08-19T09:14:02;12.10;;;10.30;;
50739;SDS011;36704;52.524;17.580;2022-08-19T09:17:26;16.63;;;10.95;;
50739;SDS011;36704;52.524;17.580;2022-08-19T09:20:21;16.05;;;10.35;;
50739;SDS011;36704;52.524;17.580;2022-08-19T09:23:11;13.98;;;10.35;;
50739;SDS011;36704;52.524;17.580;2022-08-19T09:25:58;14.57;;;10.35;;
50739;SDS011;36704;52.524;17.580;2022-08-19T09:28:45;15.68;;;10.07;;
50739;SDS011;36704;52.524;17.580;2022-08-19T09:31:35;14.15;;;10.10;;
50739;SDS011;36704;52.524;17.580;2022-08-19T09:34:24;15.90;;;9.95;;
50739;SDS011;36704;52.524;17.580;2022-08-19T09:37:12;14.25;;;10.07;;
50739;SDS011;36704;52.524;17.580;2022-08-19T09:40:01;13.50;;;10.27;;
50739;SDS011;36704;52.524;17.580;2022-08-19T09:42:49;14.43;;;10.30;;
50739;SDS011;36704;52.524;17.580;2022-08-19T09:45:37;13.52;;;10.38;;
50739;SDS011;36704;52.524;17.580;2022-08-19T09:48:24;17.45;;;11.18;;
50739;SDS011;36704;52.524;17.580;2022-08-19T09:51:13;16.75;;;11.02;;
50739;SDS011;36704;52.524;17.580;2022-08-19T09:54:02;15.93;;;10.18;;
50739;SDS011;36704;52.524;17.580;2022-08-19T09:56:50;14.75;;;10.65;;
50739;SDS011;36704;52.524;17.580;2022-08-19T09:59:41;18.95;;;10.45;;
50739;SDS011;36704;52.524;17.580;2022-08-19T10:02:29;16.15;;;10.63;;
50739;SDS011;36704;52.524;17.580;2022-08-19T10:05:16;16.75;;;10.60;;
50739;SDS011;36704;52.524;17.580;2022-08-19T10:08:23;13.88;;;10.55;;
50739;SDS011;36704;52.524;17.580;2022-08-19T10:11:20;13.65;;;9.82;;
50739;SDS011;36704;52.524;17.580;2022-08-19T10:14:21;13.27;;;10.40;;
50739;SDS011;36704;52.524;17.580;2022-08-19T10:17:10;14.52;;;9.98;;
50739;SDS011;36704;52.524;17.580;2022-08-19T10:20:07;15.15;;;10.57;;
50739;SDS011;36704;52.524;17.580;2022-08-19T10:22:54;13.00;;;10.32;;
50739;SDS011;36704;52.524;17.580;2022-08-19T10:25:42;15.60;;;10.77;;
50739;SDS011;36704;52.524;17.580;2022-08-19T10:28:29;15.82;;;10.10;;
50739;SDS011;36704;52.524;17.580;2022-08-19T10:31:24;14.95;;;10.60;;
50739;SDS011;36704;52.524;17.580;2022-08-19T10:34:33;12.63;;;10.10;;
50739;SDS011;36704;52.524;17.580;2022-08-19T10:37:33;13.32;;;9.85;;
50739;SDS011;36704;52.524;17.580;2022-08-19T10:40:47;17.30;;;10.48;;
50739;SDS011;36704;52.524;17.580;2022-08-19T10:43:56;15.15;;;10.60;;
50739;SDS011;36704;52.524;17.580;2022-08-19T10:46:51;12.20;;;9.90;;
50739;SDS011;36704;52.524;17.580;2022-08-19T10:49:43;13.50;;;9.32;;
50739;SDS011;36704;52.524;17.580;2022-08-19T10:52:49;13.15;;;8.93;;
50739;SDS011;36704;52.524;17.580;2022-08-19T10:55:41;11.98;;;8.88;;
50739;SDS011;36704;52.524;17.580;2022-08-19T10:59:09;16.05;;;9.25;;
50739;SDS011;36704;52.524;17.580;2022-08-19T11:02:03;12.27;;;9.13;;
50739;SDS011;36704;52.524;17.580;2022-08-19T11:04:55;14.80;;;9.90;;
50739;SDS011;36704;52.524;17.580;2022-08-19T11:07:51;15.35;;;9.90;;
50739;SDS011;36704;52.524;17.580;2022-08-19T11:10:43;13.55;;;8.88;;
50739;SDS011;36704;52.524;17.580;2022-08-19T11:13:36;12.98;;;9.68;;
50739;SDS011;36704;52.524;17.580;2022-08-19T11:16:26;14.00;;;10.00;;
50739;SDS011;36704;52.524;17.580;2022-08-19T11:19:16;11.32;;;9.57;;
50739;SDS011;36704;52.524;17.580;2022-08-19T11:22:07;13.30;;;9.23;;
50739;SDS011;36704;52.524;17.580;2022-08-19T11:25:02;16.60;;;9.27;;
50739;SDS011;36704;52.524;17.580;2022-08-19T11:27:51;12.60;;;9.50;;
50739;SDS011;36704;52.524;17.580;2022-08-19T11:30:42;15.75;;;9.25;;
50739;SDS011;36704;52.524;17.580;2022-08-19T11:33:29;21.58;;;9.95;;
50739;SDS011;36704;52.524;17.580;2022-08-19T11:36:18;12.43;;;9.13;;
50739;SDS011;36704;52.524;17.580;2022-08-19T11:39:12;12.82;;;10.13;;
50739;SDS011;36704;52.524;17.580;2022-08-19T11:42:04;10.27;;;8.90;;
50739;SDS011;36704;52.524;17.580;2022-08-19T11:45:13;10.70;;;9.00;;
50739;SDS011;36704;52.524;17.580;2022-08-19T11:48:01;14.98;;;9.90;;
50739;SDS011;36704;52.524;17.580;2022-08-19T11:50:49;12.68;;;9.57;;
50739;SDS011;36704;52.524;17.580;2022-08-19T11:53:41;17.33;;;9.32;;
50739;SDS011;36704;52.524;17.580;2022-08-19T11:56:30;16.77;;;9.45;;
50739;SDS011;36704;52.524;17.580;2022-08-19T11:59:29;11.27;;;9.38;;
50739;SDS011;36704;52.524;17.580;2022-08-19T12:02:18;11.47;;;8.83;;
50739;SDS011;36704;52.524;17.580;2022-08-19T12:05:09;9.18;;;7.82;;
50739;SDS011;36704;52.524;17.580;2022-08-19T12:07:59;13.02;;;8.85;;
50739;SDS011;36704;52.524;17.580;2022-08-19T12:10:47;12.30;;;8.10;;
50739;SDS011;36704;52.524;17.580;2022-08-19T12:13:41;14.48;;;8.80;;
50739;SDS011;36704;52.524;17.580;2022-08-19T12:16:34;12.00;;;8.30;;
50739;SDS011;36704;52.524;17.580;2022-08-19T12:19:33;11.20;;;7.85;;
50739;SDS011;36704;52.524;17.580;2022-08-19T12:22:25;15.75;;;8.57;;
50739;SDS011;36704;52.524;17.580;2022-08-19T12:25:17;11.77;;;7.13;;
50739;SDS011;36704;52.524;17.580;2022-08-19T12:28:11;13.77;;;8.05;;
50739;SDS011;36704;52.524;17.580;2022-08-19T12:31:01;8.93;;;7.88;;
50739;SDS011;36704;52.524;17.580;2022-08-19T12:33:50;11.88;;;7.68;;
50739;SDS011;36704;52.524;17.580;2022-08-19T12:36:47;13.35;;;7.38;;
50739;SDS011;36704;52.524;17.580;2022-08-19T12:39:42;10.95;;;7.40;;
50739;SDS011;36704;52.524;17.580;2022-08-19T12:42:32;14.07;;;7.22;;
50739;SDS011;36704;52.524;17.580;2022-08-19T12:45:27;11.27;;;6.80;;
50739;SDS011;36704;52.524;17.580;2022-08-19T12:48:15;7.80;;;5.97;;
50739;SDS011;36704;52.524;17.580;2022-08-19T12:51:20;8.32;;;5.65;;
50739;SDS011;36704;52.524;17.580;2022-08-19T12:54:14;7.43;;;5.43;;
50739;SDS011;36704;52.524;17.580;2022-08-19T12:57:05;7.40;;;5.20;;
50739;SDS011;36704;52.524;17.580;2022-08-19T12:59:54;8.90;;;5.55;;
50739;SDS011;36704;52.524;17.580;2022-08-19T13:02:43;10.57;;;5.97;;
50739;SDS011;36704;52.524;17.580;2022-08-19T13:05:32;12.45;;;5.72;;
50739;SDS011;36704;52.524;17.580;2022-08-19T13:08:21;8.10;;;5.28;;
50739;SDS011;36704;52.524;17.580;2022-08-19T13:11:13;8.73;;;5.50;;
50739;SDS011;36704;52.524;17.580;2022-08-19T13:14:04;8.27;;;5.25;;
50739;SDS011;36704;52.524;17.580;2022-08-19T13:16:51;9.00;;;5.45;;
50739;SDS011;36704;52.524;17.580;2022-08-19T13:19:38;6.40;;;5.00;;
50739;SDS011;36704;52.524;17.580;2022-08-19T13:22:28;7.97;;;5.22;;
50739;SDS011;36704;52.524;17.580;2022-08-19T13:25:27;7.35;;;4.82;;
50739;SDS011;36704;52.524;17.580;2022-08-19T13:28:14;8.68;;;5.03;;
50739;SDS011;36704;52.524;17.580;2022-08-19T13:31:06;6.95;;;5.38;;
50739;SDS011;36704;52.524;17.580;2022-08-19T13:34:13;11.77;;;5.45;;
50739;SDS011;36704;52.524;17.580;2022-08-19T13:37:05;8.60;;;5.15;;
50739;SDS011;36704;52.524;17.580;2022-08-19T13:39:52;6.25;;;5.15;;
50739;SDS011;36704;52.524;17.580;2022-08-19T13:42:39;8.02;;;5.70;;
50739;SDS011;36704;52.524;17.580;2022-08-19T13:45:28;8.70;;;5.60;;
50739;SDS011;36704;52.524;17.580;2022-08-19T13:48:16;12.25;;;6.10;;
50739;SDS011;36704;52.524;17.580;2022-08-19T13:51:04;8.82;;;6.50;;
50739;SDS011;36704;52.524;17.580;2022-08-19T13:53:51;10.40;;;6.05;;
50739;SDS011;36704;52.524;17.580;2022-08-19T13:56:40;9.02;;;5.80;;
50739;SDS011;36704;52.524;17.580;2022-08-19T13:59:31;7.32;;;6.00;;
50739;SDS011;36704;52.524;17.580;2022-08-19T14:02:19;9.95;;;6.35;;
50739;SDS011;36704;52.524;17.580;2022-08-19T14:05:08;9.57;;;5.93;;
50739;SDS011;36704;52.524;17.580;2022-08-19T14:07:58;7.40;;;5.70;;
50739;SDS011;36704;52.524;17.580;2022-08-19T14:10:48;9.65;;;6.10;;
50739;SDS011;36704;52.524;17.580;2022-08-19T14:13:39;10.65;;;5.93;;
50739;SDS011;36704;52.524;17.580;2022-08-19T14:16:32;9.57;;;5.88;;
50739;SDS011;36704;52.524;17.580;2022-08-19T14:19:23;8.73;;;5.88;;
50739;SDS011;36704;52.524;17.580;2022-08-19T14:22:16;10.18;;;6.03;;
50739;SDS011;36704;52.524;17.580;2022-08-19T14:25:19;9.98;;;5.75;;
50739;SDS011;36704;52.524;17.580;2022-08-19T14:28:11;8.57;;;5.93;;
50739;SDS011;36704;52.524;17.580;2022-08-19T14:30:58;21.92;;;7.25;;
50739;SDS011;36704;52.524;17.580;2022-08-19T14:33:46;11.68;;;6.20;;
50739;SDS011;36704;52.524;17.580;2022-08-19T14:36:33;27.75;;;8.23;;
50739;SDS011;36704;52.524;17.580;2022-08-19T14:39:24;19.50;;;7.13;;
50739;SDS011;36704;52.524;17.580;2022-08-19T14:42:12;16.10;;;6.70;;
50739;SDS011;36704;52.524;17.580;2022-08-19T14:45:01;25.45;;;6.22;;
50739;SDS011;36704;52.524;17.580;2022-08-19T14:47:53;17.90;;;6.32;;
50739;SDS011;36704;52.524;17.580;2022-08-19T14:50:43;12.05;;;6.03;;
50739;SDS011;36704;52.524;17.580;2022-08-19T14:53:30;24.88;;;7.47;;
50739;SDS011;36704;52.524;17.580;2022-08-19T14:56:22;23.38;;;6.18;;
50739;SDS011;36704;52.524;17.580;2022-08-19T14:59:10;22.52;;;7.32;;
50739;SDS011;36704;52.524;17.580;2022-08-19T15:01:59;23.52;;;6.22;;
50739;SDS011;36704;52.524;17.580;2022-08-19T15:05:06;22.55;;;6.72;;
50739;SDS011;36704;52.524;17.580;2022-08-19T15:07:53;13.07;;;5.82;;
50739;SDS011;36704;52.524;17.580;2022-08-19T15:10:44;9.75;;;5.40;;
50739;SDS011;36704;52.524;17.580;2022-08-19T15:13:36;10.20;;;5.45;;
50739;SDS011;36704;52.524;17.580;2022-08-19T15:16:23;8.63;;;4.80;;
50739;SDS011;36704;52.524;17.580;2022-08-19T15:19:12;7.78;;;4.85;;
50739;SDS011;36704;52.524;17.580;2022-08-19T15:22:00;12.27;;;5.38;;
50739;SDS011;36704;52.524;17.580;2022-08-19T15:24:54;10.88;;;4.97;;
50739;SDS011;36704;52.524;17.580;2022-08-19T15:27:45;17.92;;;5.63;;
50739;SDS011;36704;52.524;17.580;2022-08-19T15:30:39;11.73;;;5.03;;
50739;SDS011;36704;52.524;17.580;2022-08-19T15:33:33;10.65;;;5.10;;
50739;SDS011;36704;52.524;17.580;2022-08-19T15:36:25;10.85;;;5.00;;
50739;SDS011;36704;52.524;17.580;2022-08-19T15:39:14;23.92;;;5.55;;
50739;SDS011;36704;52.524;17.580;2022-08-19T15:42:06;15.30;;;6.25;;
50739;SDS011;36704;52.524;17.580;2022-08-19T15:44:54;13.48;;;6.07;;
50739;SDS011;36704;52.524;17.580;2022-08-19T15:48:02;11.77;;;5.80;;
50739;SDS011;36704;52.524;17.580;2022-08-19T15:50:56;7.20;;;5.50;;
50739;SDS011;36704;52.524;17.580;2022-08-19T15:53:54;10.38;;;6.65;;
50739;SDS011;36704;52.524;17.580;2022-08-19T15:56:42;10.80;;;6.30;;
50739;SDS011;36704;52.524;17.580;2022-08-19T15:59:49;10.82;;;7.07;;
50739;SDS011;36704;52.524;17.580;2022-08-19T16:03:16;8.02;;;6.43;;
50739;SDS011;36704;52.524;17.580;2022-08-19T16:06:34;9.00;;;6.82;;
50739;SDS011;36704;52.524;17.580;2022-08-19T16:09:21;14.80;;;7.55;;
50739;SDS011;36704;52.524;17.580;2022-08-19T16:12:17;10.75;;;7.13;;
50739;SDS011;36704;52.524;17.580;2022-08-19T16:15:08;8.63;;;7.32;;
50739;SDS011;36704;52.524;17.580;2022-08-19T16:17:59;11.73;;;7.50;;
50739;SDS011;36704;52.524;17.580;2022-08-19T16:20:50;13.57;;;8.00;;
50739;SDS011;36704;52.524;17.580;2022-08-19T16:23:43;9.10;;;7.78;;
50739;SDS011;36704;52.524;17.580;2022-08-19T16:26:42;18.33;;;8.70;;
50739;SDS011;36704;52.524;17.580;2022-08-19T16:29:47;11.23;;;8.43;;
50739;SDS011;36704;52.524;17.580;2022-08-19T16:32:58;10.25;;;9.13;;
50739;SDS011;36704;52.524;17.580;2022-08-19T16:35:55;13.10;;;9.88;;
50739;SDS011;36704;52.524;17.580;2022-08-19T16:38:55;13.27;;;9.80;;
50739;SDS011;36704;52.524;17.580;2022-08-19T16:41:49;16.92;;;11.70;;
50739;SDS011;36704;52.524;17.580;2022-08-19T16:44:40;13.32;;;10.50;;